Time;durP1;ratioP1;P1;durP2;ratioP2;P2;SDS_P1;SDS_P2;PMS_P1;PMS_P2;Temp;Humidity;BMP_temperature;BMP_pressure;BME280_temperature;BME280_humidity;BME280_pressure;Samples;Min_cycle;Max_cycle;Signal;HPM_P1;HPM_P2
2023/05/15 00:00:11;;;;;;;1999.90;999.90;;;14.80;99.90;;;;;;4994539;28;20474;-71
2023/05/15 00:02:37;;;;;;;1999.90;999.90;;;14.70;99.90;;;;;;4994167;28;20460;-71
2023/05/15 00:05:03;;;;;;;1999.90;999.90;;;14.80;99.90;;;;;;4994555;28;20414;-71
2023/05/15 00:07:29;;;;;;;1999.90;999.90;;;14.80;99.90;;;;;;4994418;28;20414;-71
2023/05/15 00:09:55;;;;;;;1999.90;999.90;;;14.80;99.90;;;;;;4994447;28;20816;-71
2023/05/15 00:12:21;;;;;;;1999.90;999.90;;;14.80;99.90;;;;;;4994136;28;20430;-71
2023/05/15 00:14:46;;;;;;;1999.90;999.90;;;14.80;99.90;;;;;;4994401;28;20308;-70
2023/05/15 00:17:12;;;;;;;1999.90;999.90;;;14.80;99.90;;;;;;4994325;28;20701;-71
2023/05/15 00:19:38;;;;;;;1999.90;999.90;;;14.70;99.90;;;;;;4994123;28;20201;-70
2023/05/15 00:22:03;;;;;;;1999.90;999.90;;;14.80;99.90;;;;;;4994183;28;20211;-71
2023/05/15 00:24:29;;;;;;;1999.90;999.90;;;14.80;99.90;;;;;;4994169;28;20183;-71
2023/05/15 00:26:54;;;;;;;1999.90;999.90;;;14.80;99.90;;;;;;4994159;28;20171;-71
2023/05/15 00:29:20;;;;;;;1999.90;999.90;;;14.80;99.90;;;;;;4993999;28;20736;-71
2023/05/15 00:31:46;;;;;;;1999.90;999.90;;;14.90;99.90;;;;;;4993856;28;20658;-72
2023/05/15 00:34:11;;;;;;;1999.90;999.90;;;14.90;99.90;;;;;;4994045;28;20694;-71
2023/05/15 00:36:37;;;;;;;1999.90;999.90;;;14.80;99.90;;;;;;4993998;28;20181;-71
2023/05/15 00:39:02;;;;;;;1999.90;999.90;;;14.70;99.90;;;;;;4993780;28;20205;-71
2023/05/15 00:41:31;;;;;;;1999.90;999.90;;;14.70;99.90;;;;;;4993537;28;20278;-70
2023/05/15 00:43:59;;;;;;;1999.90;999.90;;;14.70;99.90;;;;;;4993867;28;20266;-71
2023/05/15 00:46:26;;;;;;;1999.90;999.90;;;14.80;99.90;;;;;;4993772;28;20904;-70
2023/05/15 00:48:52;;;;;;;1999.90;999.90;;;14.80;99.90;;;;;;4993652;28;20908;-71
2023/05/15 00:51:18;;;;;;;1999.90;999.90;;;14.80;99.90;;;;;;4993486;28;20459;-71
2023/05/15 00:53:43;;;;;;;1999.90;999.90;;;14.80;99.90;;;;;;4993638;28;20413;-71
2023/05/15 00:56:11;;;;;;;1999.90;999.90;;;14.80;99.90;;;;;;4993644;28;20770;-71
2023/05/15 00:58:37;;;;;;;1999.90;999.90;;;14.80;99.90;;;;;;4993472;28;20242;-71
2023/05/15 01:01:03;;;;;;;1999.90;999.90;;;14.80;99.90;;;;;;4993160;28;20452;-70
2023/05/15 01:03:29;;;;;;;1999.90;999.90;;;14.80;99.90;;;;;;4992932;28;20774;-72
2023/05/15 01:05:55;;;;;;;1999.90;999.90;;;14.80;99.90;;;;;;4993398;28;20409;-71
2023/05/15 01:08:36;;;;;;;1999.90;999.90;;;14.70;99.90;;;;;;4993263;28;20407;-71
2023/05/15 01:11:04;;;;;;;1999.90;999.90;;;14.70;99.90;;;;;;4993110;28;20218;-71
2023/05/15 01:13:30;;;;;;;1999.90;999.90;;;14.70;99.90;;;;;;4993211;28;20407;-71
2023/05/15 01:15:56;;;;;;;1999.90;999.90;;;14.70;99.90;;;;;;4993242;28;20409;-70
2023/05/15 01:18:22;;;;;;;1999.90;999.90;;;14.40;99.90;;;;;;4993295;28;20180;-71
2023/05/15 01:20:59;;;;;;;1999.90;999.90;;;14.60;99.90;;;;;;4993086;28;20845;-71
2023/05/15 01:23:49;;;;;;;1999.90;999.90;;;14.70;99.90;;;;;;4993205;28;20536;-71
2023/05/15 01:26:35;;;;;;;1999.90;999.90;;;14.50;99.90;;;;;;4993088;28;20401;-71
2023/05/15 01:29:07;;;;;;;1999.90;999.90;;;14.60;99.90;;;;;;4992982;28;20586;-71
2023/05/15 01:31:36;;;;;;;1999.90;999.90;;;14.60;99.90;;;;;;4992793;28;20416;-71
2023/05/15 01:34:05;;;;;;;1999.90;999.90;;;14.50;99.90;;;;;;4992986;28;20413;-70
2023/05/15 01:36:45;;;;;;;1999.90;999.90;;;14.50;99.90;;;;;;4992914;28;20423;-71
2023/05/15 01:39:13;;;;;;;1999.90;999.90;;;14.50;99.90;;;;;;4992717;28;20543;-71
2023/05/15 01:42:09;;;;;;;1999.90;999.90;;;14.50;99.90;;;;;;4992426;28;20514;-71
2023/05/15 01:44:43;;;;;;;1999.90;999.90;;;14.50;99.90;;;;;;4992003;28;20476;-71
2023/05/15 01:47:13;;;;;;;1999.90;999.90;;;14.50;99.90;;;;;;4992818;28;20411;-71
2023/05/15 01:49:40;;;;;;;1999.90;999.90;;;14.50;99.90;;;;;;4992673;28;20451;-71
2023/05/15 01:52:16;;;;;;;1999.90;999.90;;;14.50;99.90;;;;;;4992439;28;20409;-71
2023/05/15 01:54:43;;;;;;;1999.90;999.90;;;14.50;99.90;;;;;;4992709;28;20510;-71
2023/05/15 01:57:10;;;;;;;1999.90;999.90;;;14.50;99.90;;;;;;4992614;28;20408;-71
2023/05/15 01:59:36;;;;;;;1999.90;999.90;;;14.50;99.90;;;;;;4992491;28;20498;-71
2023/05/15 02:02:04;;;;;;;1999.90;999.90;;;14.50;99.90;;;;;;4992224;28;20456;-71
2023/05/15 02:04:31;;;;;;;1999.90;999.90;;;14.50;99.90;;;;;;4992585;28;20412;-71
2023/05/15 02:06:58;;;;;;;1999.90;999.90;;;14.60;99.90;;;;;;4992543;28;20416;-71
2023/05/15 02:09:24;;;;;;;1999.90;999.90;;;14.60;99.90;;;;;;4992453;28;20435;-71
2023/05/15 02:11:50;;;;;;;1999.90;999.90;;;14.50;99.90;;;;;;4992184;28;20827;-71
2023/05/15 02:14:17;;;;;;;1999.90;999.90;;;14.50;99.90;;;;;;4992434;28;20406;-71
2023/05/15 02:16:43;;;;;;;1999.90;999.90;;;14.40;99.90;;;;;;4995425;28;20412;-71
2023/05/15 02:19:08;;;;;;;1999.90;999.90;;;14.40;99.90;;;;;;4996442;28;20440;-71
2023/05/15 02:21:34;;;;;;;1999.90;999.90;;;14.40;99.90;;;;;;4996075;28;20973;-71
2023/05/15 02:24:00;;;;;;;1999.90;999.90;;;14.40;99.90;;;;;;4996478;28;20179;-71
2023/05/15 02:26:30;;;;;;;1999.90;999.90;;;14.40;99.90;;;;;;4996403;28;20413;-71
2023/05/15 02:29:25;;;;;;;1999.90;999.90;;;14.30;99.90;;;;;;4996253;28;20195;-71
2023/05/15 02:32:14;;;;;;;1999.90;999.90;;;14.20;99.90;;;;;;4996049;28;20439;-71
2023/05/15 02:34:59;;;;;;;1999.90;999.90;;;14.10;99.90;;;;;;4996158;28;20409;-71
2023/05/15 02:37:29;;;;;;;1999.90;999.90;;;14.00;99.90;;;;;;4996180;28;20440;-71
2023/05/15 02:39:58;;;;;;;1999.90;999.90;;;14.00;99.90;;;;;;4995935;28;20850;-71
2023/05/15 02:42:28;;;;;;;1999.90;999.90;;;13.90;99.90;;;;;;4995767;28;20459;-70
2023/05/15 02:44:54;;;;;;;1999.90;999.90;;;13.80;99.90;;;;;;4996099;28;20401;-71
2023/05/15 02:47:22;;;;;;;1999.90;999.90;;;13.80;99.90;;;;;;4996260;28;20996;-70
2023/05/15 02:49:48;;;;;;;1999.90;999.90;;;13.70;99.90;;;;;;4995837;28;20430;-71
2023/05/15 02:52:14;;;;;;;1999.90;999.90;;;13.60;99.90;;;;;;4995846;28;20409;-71
2023/05/15 02:54:39;;;;;;;1999.90;999.90;;;13.50;99.90;;;;;;4995793;28;20414;-71
2023/05/15 02:57:06;;;;;;;1999.90;999.90;;;13.50;99.90;;;;;;4995918;28;20183;-70
2023/05/15 02:59:33;;;;;;;1999.90;999.90;;;13.40;99.90;;;;;;4995583;28;20669;-71
2023/05/15 03:01:58;;;;;;;1999.90;999.90;;;13.30;99.90;;;;;;4995394;28;20578;-71
2023/05/15 03:04:24;;;;;;;1999.90;999.90;;;13.30;99.90;;;;;;4995569;28;20970;-70
2023/05/15 03:06:50;;;;;;;1999.90;999.90;;;13.20;99.90;;;;;;4995648;28;20198;-70
2023/05/15 03:09:16;;;;;;;1999.90;999.90;;;13.10;99.90;;;;;;4995999;28;20216;-71
2023/05/15 03:11:42;;;;;;;1999.90;999.90;;;13.00;99.90;;;;;;4995376;28;20177;-71
2023/05/15 03:14:07;;;;;;;1999.90;999.90;;;12.90;99.90;;;;;;4995574;28;20411;-71
2023/05/15 03:16:35;;;;;;;1999.90;999.90;;;12.80;99.90;;;;;;4995501;28;20209;-71
2023/05/15 03:19:01;;;;;;;1999.90;999.90;;;12.80;99.90;;;;;;4995338;28;20694;-71
2023/05/15 03:21:26;;;;;;;1999.90;999.90;;;12.80;99.90;;;;;;4995076;28;20498;-70
2023/05/15 03:23:52;;;;;;;1999.90;999.90;;;12.80;99.90;;;;;;4995423;28;20167;-71
2023/05/15 03:26:17;;;;;;;1999.90;999.90;;;12.90;99.90;;;;;;4995022;28;20174;-71
2023/05/15 03:28:43;;;;;;;1999.90;999.90;;;12.70;99.90;;;;;;4995153;28;20624;-71
2023/05/15 03:31:09;;;;;;;1999.90;999.90;;;12.70;99.90;;;;;;4994974;28;20177;-71
2023/05/15 03:33:34;;;;;;;1999.90;999.90;;;12.70;99.90;;;;;;4995128;28;20180;-71
2023/05/15 03:36:00;;;;;;;1999.90;999.90;;;12.70;99.90;;;;;;4995200;28;20184;-71
2023/05/15 03:38:25;;;;;;;1999.90;999.90;;;12.70;99.90;;;;;;4994821;28;20257;-71
2023/05/15 03:40:51;;;;;;;1999.90;999.90;;;12.70;99.90;;;;;;4994792;28;20171;-71
2023/05/15 03:43:16;;;;;;;1999.90;999.90;;;12.70;99.90;;;;;;4994814;28;20203;-71
2023/05/15 03:45:43;;;;;;;1999.90;999.90;;;12.70;99.90;;;;;;4994965;28;20171;-71
2023/05/15 03:48:08;;;;;;;1999.90;999.90;;;12.70;99.90;;;;;;4994878;28;20199;-71
2023/05/15 03:50:34;;;;;;;1999.90;999.90;;;12.80;99.90;;;;;;4994819;28;20461;-71
2023/05/15 03:53:00;;;;;;;1999.90;999.90;;;12.80;99.90;;;;;;4994489;28;20712;-71
2023/05/15 03:55:25;;;;;;;1999.90;999.90;;;12.80;99.90;;;;;;4994757;28;20221;-71
2023/05/15 03:57:51;;;;;;;1999.90;999.90;;;12.80;99.90;;;;;;4994714;28;20292;-71
2023/05/15 04:00:17;;;;;;;1999.90;999.90;;;12.80;99.90;;;;;;4994712;28;20227;-71
2023/05/15 04:02:43;;;;;;;1999.90;999.90;;;12.90;99.90;;;;;;4994211;28;20883;-71
2023/05/15 04:05:08;;;;;;;1999.90;999.90;;;12.90;99.90;;;;;;4994586;28;20175;-71
2023/05/15 04:07:35;;;;;;;1999.90;999.90;;;12.90;99.90;;;;;;4994642;28;20234;-71
2023/05/15 04:10:01;;;;;;;1999.90;999.90;;;12.80;99.90;;;;;;4994356;28;20800;-71
2023/05/15 04:12:36;;;;;;;1999.90;999.90;;;12.80;99.90;;;;;;4994218;28;20411;-71
2023/05/15 04:15:21;;;;;;;1999.90;999.90;;;12.80;99.90;;;;;;4994487;28;20915;-71
2023/05/15 04:17:48;;;;;;;1999.90;999.90;;;12.80;99.90;;;;;;4994239;28;20517;-71
2023/05/15 04:20:15;;;;;;;1999.90;999.90;;;12.80;99.90;;;;;;4994278;28;20445;-71
2023/05/15 04:22:42;;;;;;;1999.90;999.90;;;12.80;99.90;;;;;;4993845;28;20453;-71
2023/05/15 04:25:10;;;;;;;1999.90;999.90;;;12.80;99.90;;;;;;4994187;28;20403;-71
2023/05/15 04:27:35;;;;;;;1999.90;999.90;;;12.90;99.90;;;;;;4994107;28;20413;-71
2023/05/15 04:30:02;;;;;;;1999.90;999.90;;;12.90;99.90;;;;;;4994008;28;20432;-71
2023/05/15 04:32:29;;;;;;;1999.90;999.90;;;12.90;99.90;;;;;;4993848;28;20198;-71
2023/05/15 04:34:55;;;;;;;1999.90;999.90;;;12.90;99.90;;;;;;4994015;28;20493;-71
2023/05/15 04:37:20;;;;;;;1999.90;999.90;;;13.00;99.90;;;;;;4993920;28;20504;-71
2023/05/15 04:39:46;;;;;;;1999.90;999.90;;;13.00;99.90;;;;;;4993053;28;20220;-71
2023/05/15 04:42:12;;;;;;;1999.90;999.90;;;13.00;99.90;;;;;;4993471;28;20494;-71
2023/05/15 04:44:37;;;;;;;1999.90;999.90;;;13.00;99.90;;;;;;4993838;28;20187;-71
2023/05/15 04:47:03;;;;;;;1999.90;999.90;;;13.00;99.90;;;;;;4993884;28;20550;-71
2023/05/15 04:49:29;;;;;;;1999.90;999.90;;;13.00;99.90;;;;;;4993761;28;20196;-71
2023/05/15 04:51:54;;;;;;;1999.90;999.90;;;13.00;99.90;;;;;;4993363;28;20895;-71
2023/05/15 04:54:20;;;;;;;1999.90;999.90;;;12.90;99.90;;;;;;4993674;28;20210;-71
2023/05/15 04:56:46;;;;;;;1999.90;999.90;;;12.90;99.90;;;;;;4993519;28;20175;-71
2023/05/15 04:59:12;;;;;;;1999.90;999.90;;;12.90;99.90;;;;;;4993502;28;20230;-71
2023/05/15 05:01:38;;;;;;;1999.90;999.90;;;12.80;99.90;;;;;;4993084;28;20564;-71
2023/05/15 05:04:04;;;;;;;1999.90;999.90;;;12.80;99.90;;;;;;4993403;28;20420;-71
2023/05/15 05:06:29;;;;;;;1999.90;999.90;;;12.70;99.90;;;;;;4993388;28;20776;-71
2023/05/15 05:08:55;;;;;;;1999.90;999.90;;;12.70;99.90;;;;;;4993302;28;20491;-71
2023/05/15 05:11:21;;;;;;;1999.90;999.90;;;12.70;99.90;;;;;;4993056;28;20662;-71
2023/05/15 05:13:46;;;;;;;1999.90;999.90;;;12.70;99.90;;;;;;4993281;28;20263;-71
2023/05/15 05:16:12;;;;;;;1999.90;999.90;;;12.70;99.90;;;;;;4993272;28;20175;-71
2023/05/15 05:18:37;;;;;;;1999.90;999.90;;;12.70;99.90;;;;;;4993327;28;20550;-71
2023/05/15 05:21:03;;;;;;;1999.90;999.90;;;12.70;99.90;;;;;;4992832;28;20172;-71
2023/05/15 05:23:29;;;;;;;1999.90;999.90;;;12.70;99.90;;;;;;4993220;28;20209;-71
2023/05/15 05:25:55;;;;;;;1999.90;999.90;;;12.70;99.90;;;;;;4992991;28;20956;-71
2023/05/15 05:28:21;;;;;;;1999.90;999.90;;;12.60;99.90;;;;;;4992929;28;20427;-71
2023/05/15 05:30:47;;;;;;;1999.90;999.90;;;12.70;99.90;;;;;;4992993;28;20226;-71
2023/05/15 05:33:13;;;;;;;1999.90;999.90;;;12.80;99.90;;;;;;4992766;28;20175;-71
2023/05/15 05:35:39;;;;;;;1999.90;999.90;;;12.80;99.90;;;;;;4992917;28;20413;-71
2023/05/15 05:38:05;;;;;;;1999.90;999.90;;;12.80;99.90;;;;;;4992782;28;20414;-72
2023/05/15 05:40:30;;;;;;;1999.90;999.90;;;12.80;99.90;;;;;;4992827;28;20544;-71
2023/05/15 05:43:02;;;;;;;1999.90;999.90;;;12.90;99.90;;;;;;4992651;28;20576;-71
2023/05/15 05:45:28;;;;;;;1999.90;999.90;;;12.80;99.90;;;;;;4992807;28;20170;-72
2023/05/15 05:47:55;;;;;;;1999.90;999.90;;;12.70;99.90;;;;;;4992793;28;20413;-71
2023/05/15 05:50:21;;;;;;;1999.90;999.90;;;12.70;99.90;;;;;;4992671;28;20473;-71
2023/05/15 05:52:46;;;;;;;1999.90;999.90;;;12.70;99.90;;;;;;4992375;28;20817;-71
2023/05/15 05:55:12;;;;;;;1999.90;999.90;;;12.70;99.90;;;;;;4992648;28;20413;-72
2023/05/15 05:57:38;;;;;;;1999.90;999.90;;;12.70;99.90;;;;;;4992597;28;20238;-72
2023/05/15 06:00:08;;;;;;;1999.90;999.90;;;12.60;99.90;;;;;;4992514;28;20254;-72
2023/05/15 06:02:34;;;;;;;1999.90;999.90;;;12.70;99.90;;;;;;4992276;28;20204;-71
2023/05/15 06:05:00;;;;;;;1999.90;999.90;;;12.70;99.90;;;;;;4992625;28;20817;-71
2023/05/15 06:07:26;;;;;;;1999.90;999.90;;;12.70;99.90;;;;;;4992486;28;20414;-71
2023/05/15 06:09:51;;;;;;;1999.90;999.90;;;12.70;99.90;;;;;;4992333;28;20206;-71
2023/05/15 06:12:17;;;;;;;1999.90;999.90;;;12.70;99.90;;;;;;4992285;28;20188;-71
2023/05/15 06:14:42;;;;;;;1999.90;999.90;;;12.70;99.90;;;;;;4992514;28;20595;-71
2023/05/15 06:17:08;;;;;;;1999.90;999.90;;;12.70;99.90;;;;;;4992620;28;20202;-71
2023/05/15 06:19:34;;;;;;;1999.90;999.90;;;12.70;99.90;;;;;;4992405;28;20274;-71
2023/05/15 06:21:59;;;;;;;1999.90;999.90;;;12.60;99.90;;;;;;4992010;28;20194;-71
2023/05/15 06:24:25;;;;;;;1999.90;999.90;;;12.50;99.90;;;;;;4992392;28;20170;-71
2023/05/15 06:26:51;;;;;;;1999.90;999.90;;;12.60;99.90;;;;;;4992401;28;20215;-71
2023/05/15 06:29:17;;;;;;;1999.90;999.90;;;12.70;99.90;;;;;;4992288;28;20429;-71
2023/05/15 06:31:42;;;;;;;1999.90;999.90;;;12.70;99.90;;;;;;4992113;28;20257;-71
2023/05/15 06:34:08;;;;;;;1999.90;999.90;;;12.60;99.90;;;;;;4992291;28;20543;-71
2023/05/15 06:36:34;;;;;;;1999.90;999.90;;;12.60;99.90;;;;;;4992372;28;20181;-71
2023/05/15 06:38:59;;;;;;;1999.90;999.90;;;12.70;99.90;;;;;;4992085;28;20234;-71
2023/05/15 06:41:25;;;;;;;1999.90;999.90;;;12.70;99.90;;;;;;4991970;28;20481;-71
2023/05/15 06:43:51;;;;;;;1999.90;999.90;;;12.60;99.90;;;;;;4992364;28;20222;-71
2023/05/15 06:46:17;;;;;;;1999.90;999.90;;;12.50;99.90;;;;;;4992249;28;20198;-71
2023/05/15 06:48:44;;;;;;;1999.90;999.90;;;12.50;99.90;;;;;;4992165;28;20197;-71
2023/05/15 06:51:09;;;;;;;1999.90;999.90;;;12.50;99.90;;;;;;4991952;28;20934;-71
2023/05/15 06:53:35;;;;;;;1999.90;999.90;;;12.50;99.90;;;;;;4992105;28;20410;-71
2023/05/15 06:56:01;;;;;;;1999.90;999.90;;;12.50;99.90;;;;;;4992184;28;20545;-71
2023/05/15 06:58:26;;;;;;;1999.90;999.90;;;12.70;99.90;;;;;;4992079;28;20178;-71
2023/05/15 07:00:52;;;;;;;1999.90;999.90;;;12.60;99.90;;;;;;4991947;28;20174;-71
2023/05/15 07:03:18;;;;;;;1999.90;999.90;;;12.60;99.90;;;;;;4995404;28;20240;-70
2023/05/15 07:05:44;;;;;;;1999.90;999.90;;;12.70;99.90;;;;;;4995582;28;20183;-70
2023/05/15 07:08:10;;;;;;;1999.90;999.90;;;12.70;99.90;;;;;;4995597;28;20172;-71
2023/05/15 07:10:35;;;;;;;1999.90;999.90;;;12.70;99.90;;;;;;4995846;28;20790;-71
2023/05/15 07:13:01;;;;;;;1999.90;999.90;;;12.70;99.90;;;;;;4995346;28;20182;-71
2023/05/15 07:15:27;;;;;;;1999.90;999.90;;;12.70;99.90;;;;;;4995568;28;20188;-71
2023/05/15 07:17:52;;;;;;;1999.90;999.90;;;12.80;99.90;;;;;;4995581;28;20216;-71
2023/05/15 07:20:18;;;;;;;1999.90;999.90;;;12.90;99.90;;;;;;4995593;28;20256;-71
2023/05/15 07:22:43;;;;;;;1999.90;999.90;;;13.00;99.90;;;;;;4994943;28;20202;-71
2023/05/15 07:25:09;;;;;;;1999.90;999.90;;;13.00;99.90;;;;;;4995453;28;20254;-71
2023/05/15 07:27:35;;;;;;;1999.90;999.90;;;13.20;99.90;;;;;;4995280;28;20177;-71
2023/05/15 07:30:04;;;;;;;1999.90;999.90;;;13.10;99.90;;;;;;4995170;28;20191;-71
2023/05/15 07:32:29;;;;;;;1999.90;999.90;;;13.10;99.90;;;;;;4994991;28;20199;-70
2023/05/15 07:34:55;;;;;;;1999.90;999.90;;;13.10;99.90;;;;;;4995090;28;20423;-71
2023/05/15 07:37:22;;;;;;;1999.90;999.90;;;13.20;99.90;;;;;;4995058;28;20406;-71
2023/05/15 07:39:47;;;;;;;1999.90;999.90;;;13.30;99.90;;;;;;4994974;28;20274;-71
2023/05/15 07:42:13;;;;;;;1999.90;999.90;;;13.40;99.90;;;;;;4994618;28;20466;-71
2023/05/15 07:44:39;;;;;;;1999.90;999.90;;;13.30;99.90;;;;;;4995071;28;20177;-71
2023/05/15 07:47:04;;;;;;;1999.90;999.90;;;13.40;99.90;;;;;;4994886;28;20590;-71
2023/05/15 07:49:30;;;;;;;1999.90;999.90;;;13.40;99.90;;;;;;4994713;28;20191;-71
2023/05/15 07:51:56;;;;;;;1999.90;999.90;;;13.30;99.90;;;;;;4994696;28;20197;-70
2023/05/15 07:54:21;;;;;;;1999.90;999.90;;;13.50;99.90;;;;;;4994809;28;20610;-71
2023/05/15 07:56:47;;;;;;;1999.90;999.90;;;13.60;99.90;;;;;;4994974;28;20178;-71
2023/05/15 07:59:13;;;;;;;1999.90;999.90;;;13.70;99.90;;;;;;4994614;28;20689;-71
2023/05/15 08:01:38;;;;;;;1999.90;999.90;;;13.80;99.90;;;;;;4994329;28;20458;-71
2023/05/15 08:04:07;;;;;;;1999.90;999.90;;;13.80;99.90;;;;;;4994611;28;20654;-70
2023/05/15 08:06:34;;;;;;;1999.90;999.90;;;13.90;99.90;;;;;;4994516;28;20643;-71
2023/05/15 08:08:59;;;;;;;1999.90;999.90;;;13.90;99.90;;;;;;4994470;28;20529;-71
2023/05/15 08:11:25;;;;;;;1999.90;999.90;;;14.00;99.90;;;;;;4994241;28;20499;-71
2023/05/15 08:13:51;;;;;;;1999.90;999.90;;;14.00;99.90;;;;;;4993335;28;20442;-71
2023/05/15 08:16:17;;;;;;;1999.90;999.90;;;14.20;99.90;;;;;;4997452;28;20287;-72
2023/05/15 08:18:43;;;;;;;1999.90;999.90;;;14.30;99.90;;;;;;5008635;28;20222;-72
2023/05/15 08:21:10;;;;;;;1999.90;999.90;;;14.30;99.90;;;;;;5009498;28;20419;-72
2023/05/15 08:23:35;;;;;;;1999.90;999.90;;;14.30;99.90;;;;;;5004107;28;20601;-70
2023/05/15 08:26:01;;;;;;;1999.90;999.90;;;14.40;99.90;;;;;;5007063;28;20420;-69
2023/05/15 08:28:26;;;;;;;1999.90;999.90;;;14.60;99.90;;;;;;5009331;28;20738;-70
2023/05/15 08:30:52;;;;;;;1999.90;999.90;;;14.50;99.90;;;;;;5027947;28;20221;-71
2023/05/15 08:33:18;;;;;;;1999.90;999.90;;;14.60;99.90;;;;;;5015211;28;20187;-71
2023/05/15 08:35:43;;;;;;;1999.90;999.90;;;14.60;99.90;;;;;;5018872;28;20185;-71
2023/05/15 08:38:09;;;;;;;1999.90;999.90;;;14.70;99.90;;;;;;5016076;28;20172;-70
2023/05/15 08:40:35;;;;;;;1999.90;999.90;;;14.80;99.90;;;;;;5013104;28;20224;-71
2023/05/15 08:43:05;;;;;;;1999.90;999.90;;;14.80;99.90;;;;;;5021205;28;20204;-70
2023/05/15 08:45:31;;;;;;;1999.90;999.90;;;14.70;99.90;;;;;;5013385;28;20532;-71
2023/05/15 08:47:59;;;;;;;1999.90;999.90;;;14.70;99.90;;;;;;5019680;28;20979;-71
2023/05/15 08:50:25;;;;;;;1999.90;999.90;;;14.80;99.90;;;;;;5013375;28;20906;-70
2023/05/15 08:52:52;;;;;;;1999.90;999.90;;;14.90;99.90;;;;;;4995272;28;20416;-72
2023/05/15 08:55:17;;;;;;;1999.90;999.90;;;14.90;99.90;;;;;;5010176;28;20415;-72
2023/05/15 08:57:44;;;;;;;1999.90;999.90;;;14.80;99.90;;;;;;5012781;28;20416;-72
2023/05/15 09:00:13;;;;;;;1999.90;999.90;;;14.80;99.90;;;;;;5010804;28;20193;-72
2023/05/15 09:02:40;;;;;;;1999.90;999.90;;;14.70;99.90;;;;;;5011733;28;20440;-72
2023/05/15 09:05:07;;;;;;;1999.90;999.90;;;14.70;99.90;;;;;;5006257;28;20413;-72
2023/05/15 09:07:33;;;;;;;1999.90;999.90;;;14.80;99.90;;;;;;5011027;28;20928;-71
2023/05/15 09:10:01;;;;;;;1999.90;999.90;;;14.90;99.90;;;;;;5012151;28;20424;-71
2023/05/15 09:12:27;;;;;;;1999.90;999.90;;;15.00;99.90;;;;;;5012324;28;20500;-72
2023/05/15 09:15:11;;;;;;;1999.90;999.90;;;14.90;99.90;;;;;;5012427;28;20486;-71
2023/05/15 09:17:37;;;;;;;1999.90;999.90;;;14.80;99.90;;;;;;5012163;28;20415;-71
2023/05/15 09:20:10;;;;;;;1999.90;999.90;;;14.90;99.90;;;;;;5012314;28;20429;-71
2023/05/15 09:22:35;;;;;;;1999.90;999.90;;;15.10;99.90;;;;;;5012096;28;20549;-70
2023/05/15 09:25:02;;;;;;;1999.90;999.90;;;15.20;99.90;;;;;;5011761;28;20923;-70
2023/05/15 09:27:28;;;;;;;1999.90;999.90;;;15.30;99.90;;;;;;5012490;28;20249;-70
2023/05/15 09:29:56;;;;;;;1999.90;999.90;;;15.60;99.90;;;;;;5012152;28;20581;-70
2023/05/15 09:32:27;;;;;;;1999.90;999.90;;;15.70;99.90;;;;;;5010591;28;20185;-70
2023/05/15 09:34:52;;;;;;;1999.90;999.90;;;15.80;99.90;;;;;;5011744;28;20417;-72
2023/05/15 09:37:30;;;;;;;1999.90;999.90;;;15.90;99.90;;;;;;5011563;28;20418;-70
2023/05/15 09:40:08;;;;;;;1999.90;999.90;;;16.00;99.90;;;;;;5007729;28;20781;-70
2023/05/15 09:42:35;;;;;;;1999.90;999.90;;;16.30;99.90;;;;;;5011644;28;20459;-71
2023/05/15 09:45:01;;;;;;;1999.90;999.90;;;16.30;99.90;;;;;;5012157;28;20483;-70
2023/05/15 09:47:27;;;;;;;1999.90;999.90;;;16.10;99.90;;;;;;5011459;28;20408;-70
2023/05/15 09:49:52;;;;;;;1999.90;999.90;;;16.20;99.90;;;;;;5011590;28;20452;-70
2023/05/15 09:52:18;;;;;;;1999.90;999.90;;;16.30;99.90;;;;;;5011447;28;20425;-70
2023/05/15 09:54:45;;;;;;;1999.90;999.90;;;16.40;99.90;;;;;;5011135;28;20182;-70
2023/05/15 09:57:13;;;;;;;1999.90;999.90;;;16.50;99.90;;;;;;5011728;28;20664;-70
2023/05/15 09:59:46;;;;;;;1999.90;999.90;;;16.70;99.90;;;;;;5011737;28;20423;-70
2023/05/15 10:02:21;;;;;;;1999.90;999.90;;;16.80;99.90;;;;;;5011049;28;20456;-70
2023/05/15 10:04:53;;;;;;;1999.90;999.90;;;16.90;99.90;;;;;;5011731;28;20398;-70
2023/05/15 10:07:27;;;;;;;1999.90;999.90;;;17.00;99.90;;;;;;5011468;28;20805;-70
2023/05/15 10:09:53;;;;;;;1999.90;999.90;;;16.90;99.90;;;;;;5011238;28;20423;-70
2023/05/15 10:12:19;;;;;;;1999.90;999.90;;;17.10;99.90;;;;;;5011126;28;20416;-71
2023/05/15 10:14:46;;;;;;;1999.90;999.90;;;17.20;99.90;;;;;;5011277;28;20604;-71
2023/05/15 10:17:13;;;;;;;1999.90;999.90;;;17.00;99.90;;;;;;5011057;28;20420;-70
2023/05/15 10:19:39;;;;;;;1999.90;999.90;;;17.00;99.90;;;;;;5011425;28;20951;-72
2023/05/15 10:22:07;;;;;;;1999.90;999.90;;;17.00;99.90;;;;;;5011010;28;20440;-72
2023/05/15 10:24:34;;;;;;;1999.90;999.90;;;17.30;99.90;;;;;;5011172;28;20465;-71
2023/05/15 10:27:01;;;;;;;1999.90;999.90;;;17.40;99.90;;;;;;5011412;28;20420;-71
2023/05/15 10:29:27;;;;;;;1999.90;999.90;;;17.40;99.90;;;;;;5011310;28;20460;-71
2023/05/15 10:31:54;;;;;;;1999.90;999.90;;;17.50;99.90;;;;;;5010610;28;20479;-71
2023/05/15 10:34:20;;;;;;;1999.90;999.90;;;17.60;99.90;;;;;;5011345;28;20418;-71
2023/05/15 10:36:48;;;;;;;1999.90;999.90;;;17.60;99.90;;;;;;5012811;28;20505;-71
2023/05/15 10:39:15;;;;;;;1999.90;999.90;;;17.60;99.90;;;;;;5014831;28;20444;-71
2023/05/15 10:41:43;;;;;;;1999.90;999.90;;;17.50;99.90;;;;;;5021160;28;20475;-76
2023/05/15 10:44:10;;;;;;;1999.90;999.90;;;17.50;99.90;;;;;;5018561;28;20450;-72
2023/05/15 10:46:36;;;;;;;1999.90;999.90;;;17.50;99.90;;;;;;5017297;28;20416;-74
2023/05/15 10:49:03;;;;;;;1999.90;999.90;;;17.50;99.90;;;;;;5014735;28;20921;-74
2023/05/15 10:51:35;;;;;;;1999.90;999.90;;;17.50;99.90;;;;;;4998250;28;20432;-70
2023/05/15 10:54:02;;;;;;;1999.90;999.90;;;17.70;99.90;;;;;;5014738;28;20953;-70
2023/05/15 10:56:32;;;;;;;1999.90;999.90;;;17.70;99.90;;;;;;5015211;28;20825;-71
2023/05/15 10:59:06;;;;;;;1999.90;999.90;;;17.80;99.90;;;;;;5014995;28;20860;-70
2023/05/15 11:01:33;;;;;;;1999.90;999.90;;;17.70;99.90;;;;;;5014080;28;20437;-70
2023/05/15 11:04:13;;;;;;;1999.90;999.90;;;17.70;99.90;;;;;;5016143;28;20399;-69
2023/05/15 11:06:42;;;;;;;1999.90;999.90;;;17.70;99.90;;;;;;5014940;28;20415;-69
2023/05/15 11:09:20;;;;;;;1999.90;999.90;;;17.80;99.90;;;;;;5013981;28;20449;-69
2023/05/15 11:11:59;;;;;;;1999.90;999.90;;;18.10;99.90;;;;;;5014203;28;20413;-69
2023/05/15 11:15:01;;;;;;;1999.90;999.90;;;18.30;99.90;;;;;;5014832;28;20816;-69
2023/05/15 11:17:32;;;;;;;1999.90;999.90;;;18.50;99.90;;;;;;5001354;28;20423;-69
2023/05/15 11:19:58;;;;;;;1999.90;999.90;;;18.70;99.90;;;;;;5014466;28;20427;-69
2023/05/15 11:22:40;;;;;;;1999.90;999.90;;;18.50;99.90;;;;;;5014123;28;20875;-69
2023/05/15 11:25:08;;;;;;;1999.90;999.90;;;18.40;99.90;;;;;;5014314;28;20866;-69
2023/05/15 11:27:36;;;;;;;1999.90;999.90;;;18.40;99.90;;;;;;5014353;28;20420;-69
2023/05/15 11:30:07;;;;;;;1999.90;999.90;;;18.60;99.90;;;;;;5013707;28;20456;-69
2023/05/15 11:32:59;;;;;;;1999.90;999.90;;;18.70;99.90;;;;;;5013846;28;20401;-69
2023/05/15 11:35:32;;;;;;;1999.90;999.90;;;18.70;99.90;;;;;;5014014;28;20410;-69
2023/05/15 11:38:11;;;;;;;1999.90;999.90;;;19.00;99.90;;;;;;5013826;28;20393;-69
2023/05/15 11:40:46;;;;;;;1999.90;999.90;;;19.10;99.90;;;;;;4996544;28;20479;-69
2023/05/15 11:43:28;;;;;;;1999.90;999.90;;;19.10;99.90;;;;;;5013280;28;21040;-69
2023/05/15 11:46:08;;;;;;;1999.90;999.90;;;19.40;99.90;;;;;;5013581;28;20414;-69
2023/05/15 11:48:40;;;;;;;1999.90;999.90;;;19.70;99.90;;;;;;5013794;28;20460;-69
2023/05/15 11:51:16;;;;;;;1999.90;999.90;;;19.60;99.90;;;;;;5013427;28;20465;-69
2023/05/15 11:53:42;;;;;;;1999.90;999.90;;;19.80;99.90;;;;;;5013461;28;20425;-70
2023/05/15 11:56:15;;;;;;;1999.90;999.90;;;20.00;99.90;;;;;;5013752;28;20447;-69
2023/05/15 11:58:41;;;;;;;1999.90;999.90;;;20.50;99.90;;;;;;5013854;28;20493;-69
2023/05/15 12:01:10;;;;;;;1999.90;999.90;;;20.80;99.90;;;;;;5013087;28;20902;-69